This is the latest recevied weather packets stored in our database for station/object KE1THD. If no packets are shown the sender has not sent any weather packets the latest 1 day(s).
| Time | Temp. | Humidity | Pressure | Rain* | Wind** | Luminosity | Snow |
|---|---|---|---|---|---|---|---|
| 1836274744 | 21.11° C | 80% | 1016.3 hPa | 0 mm | 0 m/s | 0 W/m² | - |
| 1836274442 | 21.11° C | 80% | 1016 hPa | 0 mm | 0 m/s | 0 W/m² | - |
| 1836274295 | 21.11° C | 80% | 1016.1 hPa | 0 mm | 0 m/s | 0 W/m² | - |
| 1836274140 | 21.67° C | 81% | 1016.3 hPa | 0 mm | 0 m/s | 0 W/m² | - |
| 1778057496 | 6.11° C | 63% | 1012.6 hPa | 0 mm | 0.89 m/s, 302° | 0 W/m² | - |
| 1778057193 | 6.11° C | 63% | 1012.5 hPa | 0 mm | 1.34 m/s, 288° | 0 W/m² | - |
| 1778056890 | 6.11° C | 63% | 1012.6 hPa | 0 mm | 1.34 m/s, 306° | 0 W/m² | - |
| 1778056587 | 6.11° C | 63% | 1012.5 hPa | 0 mm | 1.34 m/s, 306° | 0 W/m² | - |
| 1778056285 | 6.11° C | 64% | 1012.7 hPa | 0 mm | 0.45 m/s, 305° | 0 W/m² | - |
| 1778055981 | 6.11° C | 64% | 1012.4 hPa | 0 mm | 0.45 m/s, 251° | 0 W/m² | - |
| 1778055677 | 6.11° C | 63% | 1012.6 hPa | 0 mm | 0.89 m/s, 294° | 0 W/m² | - |
| 1778055375 | 6.11° C | 62% | 1012.5 hPa | 0 mm | 0.89 m/s, 285° | 0 W/m² | - |
| 1778055073 | 6.11° C | 62% | 1012.9 hPa | 0 mm | 0.89 m/s, 299° | 0 W/m² | - |
| 1778054770 | 6.11° C | 63% | 1012.9 hPa | 0 mm | 0.45 m/s, 265° | 0 W/m² | - |
| 1778054467 | 6.11° C | 65% | 1012.7 hPa | 0 mm | 0.45 m/s, 233° | 0 W/m² | - |
| 1778054164 | 6.11° C | 65% | 1012.8 hPa | 0 mm | 0.45 m/s, 226° | 0 W/m² | - |
| 1778053861 | 6.11° C | 63% | 1012.6 hPa | 0 mm | 0 m/s | 0 W/m² | - |
| 1778053559 | 6.67° C | 63% | 1012.6 hPa | 0 mm | 0.45 m/s, 225° | 0 W/m² | - |
| 1778053255 | 6.67° C | 64% | 1012.7 hPa | 0 mm | 0.45 m/s, 260° | 0 W/m² | - |
| 1778052953 | 6.67° C | 61% | 1012.7 hPa | 0 mm | 0 m/s | 0 W/m² | - |
| 1778052650 | 6.67° C | 60% | 1012.8 hPa | 0 mm | 0 m/s | 0 W/m² | - |
| 1778052347 | 6.67° C | 60% | 1012.7 hPa | 0 mm | 0 m/s | 0 W/m² | - |
| 1778052045 | 6.67° C | 60% | 1012.6 hPa | 0 mm | 0 m/s | 0 W/m² | - |
| 1778051743 | 6.67° C | 61% | 1012.6 hPa | 0 mm | 0.45 m/s, 224° | 0 W/m² | - |
| 1778051440 | 6.67° C | 60% | 1012.6 hPa | 0 mm | 0.45 m/s, 283° | 0 W/m² | - |
* Rain latest hour (hover to see other rain measurements)
** Current wind speed in m/s (hover to see current wind gust speed)